Latest Weather Observations for Coolangatta

IDQ60801

Issued at 7:42 am EST Wednesday 23 October 2019 (issued every 10 minutes, with the page automatically refreshed every 10 minutes)

About weather observations | Map of weather stations | Latest weather observations for QLD | Other Formats
Station Details ID: 040717 Name: COOLANGATTA Lat: -28.17 Lon: 153.51 Height: 4.0 m
Data from the previous 72 hours. | See also: Recent months at Coolangatta

Observations at Coolangatta are collected in the Queensland time zone, which does not include daylight savings during the summer period. Therefore 'Rain since 9am' totals and other values are based on the Queensland time zone.

Date/Time
EST
Temp
°C
App
Temp
°C
Dew
Point
°C
Rel
Hum
%
Delta-T
°C
Wind Press
QNH
hPa
Press
MSL
hPa
Rain since
9am
mm
Dir  Spd
km/h
Gust
km/h
Spd
kts
Gust
kts
23/07:30am 21.3 20.9 14.0 63 4.2 SSE 9 11 5 6 1024.4 1024.4 0.0
23/07:00am 19.0 19.2 14.7 76 2.5 SW 7 9 4 5 1024.3 1024.3 0.0
23/06:30am 17.3 17.5 14.8 85 1.4 SW 7 9 4 5 1024.2 1024.2 0.0
23/06:00am 16.4 16.9 15.1 92 0.7 SW 6 9 3 5 1024.0 1024.0 0.0
23/05:30am 14.3 14.2 13.3 94 0.6 SW 6 7 3 4 1023.7 1023.7 0.0
23/05:00am 13.6 14.4 12.5 93 0.6 CALM 0 0 0 0 1023.4 1023.4 0.0
23/04:30am 13.7 14.5 12.6 93 0.6 CALM 0 0 0 0 1023.2 1023.2 0.0
23/04:00am 14.9 16.1 13.8 93 0.6 CALM 0 0 0 0 1022.9 1022.9 0.0
23/03:30am 15.2 16.5 14.1 93 0.6 CALM 0 0 0 0 1022.9 1022.9 0.0
23/03:00am 15.1 15.9 13.8 92 0.7 SW 2 7 1 4 1022.7 1022.7 0.0
23/02:30am 14.7 15.7 13.1 90 0.9 CALM 0 0 0 0 1022.9 1022.9 0.0
23/02:00am 15.3 15.4 13.8 91 0.8 SSW 6 7 3 4 1023.2 1023.2 0.0
23/01:30am 15.7 15.9 14.2 91 0.9 SW 6 7 3 4 1023.4 1023.4 0.0
23/01:00am 15.5 15.6 13.9 90 0.9 SW 6 9 3 5 1023.6 1023.6 0.0
23/12:30am 15.1 14.7 13.1 88 1.1 SW 7 9 4 5 1023.8 1023.8 0.0
23/12:00am 16.5 16.7 14.3 87 1.2 SW 6 7 3 4 1024.0 1024.0 0.0
 
Date/Time
EST
Temp
°C
App
Temp
°C
Dew
Point
°C
Rel
Hum
%
Delta-T
°C
Wind Press
QNH
hPa
Press
MSL
hPa
Rain since
9am
mm
Dir  Spd
km/h
Gust
km/h
Spd
kts
Gust
kts
22/11:30pm 16.9 16.7 14.7 87 1.3 SW 9 13 5 7 1024.4 1024.4 0.0
22/11:00pm 16.4 16.4 14.2 87 1.2 SW 7 9 4 5 1024.7 1024.7 0.0
22/10:30pm 16.9 17.0 14.5 86 1.4 SW 7 9 4 5 1024.7 1024.7 0.0
22/10:00pm 16.8 17.0 14.3 85 1.4 SW 6 9 3 5 1024.8 1024.8 0.0
22/09:30pm 16.7 16.8 14.5 87 1.3 WSW 7 9 4 5 1024.8 1024.8 0.0
22/09:00pm 17.1 17.3 14.6 85 1.4 SW 7 11 4 6 1024.7 1024.7 0.0
22/08:30pm 18.0 18.4 15.3 84 1.6 WSW 7 9 4 5 1024.8 1024.8 0.0
22/08:00pm 18.3 18.4 15.6 84 1.6 WSW 9 13 5 7 1024.7 1024.7 0.0
22/07:30pm 18.0 18.2 14.3 79 2.1 SSW 6 7 3 4 1024.4 1024.4 0.0
22/07:00pm 19.4 19.7 14.4 73 2.9 S 6 9 3 5 1024.4 1024.4 0.0
22/06:30pm 19.2 18.9 13.4 69 3.3 SE 7 9 4 5 1024.1 1024.1 0.0
22/06:00pm 19.8 18.8 13.5 67 3.6 SE 11 15 6 8 1023.6 1023.6 0.0
22/05:30pm 20.6 19.5 14.3 67 3.7 ESE 13 17 7 9 1023.4 1023.4 0.0
22/05:00pm 20.8 18.7 14.7 68 3.6 SE 19 26 10 14 1023.1 1023.1 0.0
22/04:30pm 21.6 18.7 15.0 66 3.9 SE 24 32 13 17 1022.7 1022.7 0.0
22/04:00pm 21.8 18.7 14.4 63 4.3 ESE 24 32 13 17 1022.6 1022.6 0.0
22/03:30pm 22.6 18.5 12.8 54 5.6 SE 26 32 14 17 1022.4 1022.4 0.0
22/03:00pm 22.4 18.3 12.6 54 5.6 ESE 26 32 14 17 1022.3 1022.3 0.0
22/02:30pm 23.2 20.1 14.5 58 5.1 ESE 24 32 13 17 1022.6 1022.6 0.0
22/02:00pm 22.8 19.2 13.0 54 5.6 ESE 24 32 13 17 1022.8 1022.8 0.0
22/01:30pm 23.3 19.6 12.6 51 6.1 SE 24 33 13 18 1023.0 1023.0 0.0
22/01:00pm 23.5 19.7 12.5 50 6.3 ESE 24 35 13 19 1023.2 1023.2 0.0
22/12:30pm 23.0 19.3 12.6 52 5.9 ESE 24 32 13 17 1023.6 1023.6 0.0
22/12:00pm 22.0 20.7 12.5 54 5.4 S 11 17 6 9 1023.9 1023.9 0.0
22/11:30am 22.1 20.0 12.4 54 5.5 SSE 15 20 8 11 1024.2 1024.2 0.0
22/11:00am 21.8 20.1 12.6 56 5.2 SSE 13 22 7 12 1024.6 1024.6 0.0
22/10:30am 21.4 19.3 12.3 56 5.1 SSE 15 20 8 11 1024.9 1024.9 0.0
22/10:00am 22.6 21.0 13.9 58 5.0 SSE 15 22 8 12 1025.1 1025.1 0.0
22/09:30am 21.3 20.9 13.0 59 4.7 ENE 7 11 4 6 1025.4 1025.4 0.0
22/09:00am 19.4 18.3 13.1 67 3.5 E 11 17 6 9 1025.6 1025.6 0.0
22/08:30am 20.2 19.0 12.9 63 4.1 SSE 11 15 6 8 1025.5 1025.5 0.0
22/08:00am 20.1 18.6 13.1 64 4.0 S 13 19 7 10 1025.3 1025.3 0.0
22/07:30am 19.5 17.4 12.3 63 4.0 S 15 19 8 10 1024.8 1024.8 0.0
22/07:00am 19.7 18.9 12.9 65 3.8 SSW 9 13 5 7 1024.6 1024.6 0.0
22/06:30am 18.7 18.0 13.1 70 3.2 SSW 9 13 5 7 1024.5 1024.5 0.0
22/06:00am 17.7 16.9 13.0 74 2.6 SW 9 13 5 7 1024.4 1024.4 0.0
22/05:30am 16.7 15.5 12.7 77 2.2 SW 11 17 6 9 1024.3 1024.3 0.0
22/05:00am 16.0 14.4 12.7 81 1.8 S 13 20 7 11 1024.0 1024.0 0.0
22/04:30am 15.6 14.5 13.1 85 1.4 S 11 17 6 9 1023.9 1023.9 0.0
22/04:00am 14.7 14.8 12.7 88 1.1 SW 4 6 2 3 1023.7 1023.7 0.0
22/03:30am 14.3 13.8 12.7 90 0.9 SW 7 9 4 5 1023.6 1023.6 0.0
22/03:00am 14.0 13.6 12.4 90 0.9 SW 6 9 3 5 1023.6 1023.6 0.0
22/02:30am 13.3 12.4 11.2 87 1.1 SW 7 9 4 5 1023.7 1023.7 0.0
22/02:00am 14.1 14.4 12.1 88 1.1 SW 2 9 1 5 1023.8 1023.8 0.0
22/01:30am 14.3 13.7 12.2 87 1.1 SW 7 9 4 5 1024.1 1024.1 0.0
22/01:00am 14.3 14.0 11.3 82 1.6 SW 4 9 2 5 1024.4 1024.4 0.0
22/12:30am 15.4 15.7 12.3 82 1.7 SW 2 9 1 5 1024.7 1024.7 0.0
22/12:00am 15.6 15.2 12.4 81 1.7 SW 6 9 3 5 1025.0 1025.0 0.0
 
Date/Time
EST
Temp
°C
App
Temp
°C
Dew
Point
°C
Rel
Hum
%
Delta-T
°C
Wind Press
QNH
hPa
Press
MSL
hPa
Rain since
9am
mm
Dir  Spd
km/h
Gust
km/h
Spd
kts
Gust
kts
21/11:30pm 15.0 13.9 11.8 81 1.7 SW 9 11 5 6 1025.2 1025.2 0.0
21/11:00pm 15.5 14.7 11.7 78 2.0 SW 7 9 4 5 1025.3 1025.3 0.0
21/10:30pm 15.9 14.8 12.1 78 2.1 WSW 9 9 5 5 1025.5 1025.5 0.0
21/10:00pm 16.2 15.6 12.4 78 2.1 WSW 7 9 4 5 1025.5 1025.5 0.0
21/09:30pm 17.4 17.4 12.5 73 2.7 SW 4 9 2 5 1025.6 1025.6 0.0
21/09:00pm 17.5 16.2 12.4 72 2.8 SW 11 13 6 7 1025.6 1025.6 0.0
21/08:30pm 17.3 16.3 12.2 72 2.8 SW 9 13 5 7 1025.5 1025.5 0.0
21/08:00pm 17.4 16.3 12.1 71 2.9 SSW 9 13 5 7 1025.4 1025.4 0.0
21/07:30pm 17.9 17.1 11.7 67 3.4 SW 7 9 4 5 1025.4 1025.4 0.0
21/07:00pm 18.3 16.9 10.9 62 4.0 SSE 9 15 5 8 1025.1 1025.1 0.0
21/06:30pm 19.2 16.2 10.5 57 4.7 SSE 17 22 9 12 1024.8 1024.8 0.0
21/06:00pm 19.7 16.1 10.7 56 4.9 SE 20 30 11 16 1024.5 1024.5 0.0
21/05:30pm 20.3 17.2 11.5 57 4.9 SSE 19 32 10 17 1024.2 1024.2 0.0
21/05:00pm 20.5 16.1 11.7 57 4.9 SSE 26 35 14 19 1024.0 1024.0 0.0
21/04:30pm 21.3 16.3 10.8 51 5.8 SSE 28 37 15 20 1023.7 1023.7 0.0
21/04:00pm 22.9 17.5 11.0 47 6.6 SE 30 41 16 22 1023.4 1023.4 0.0
21/03:30pm 21.9 16.4 10.4 48 6.3 ESE 30 43 16 23 1023.4 1023.4 0.0
21/03:00pm 23.0 17.3 11.1 47 6.6 SE 32 41 17 22 1023.1 1023.1 0.0
21/02:30pm 22.9 16.7 10.0 44 7.0 SE 33 44 18 24 1023.2 1023.2 0.0
21/02:00pm 23.7 18.0 11.1 45 7.0 ESE 32 46 17 25 1023.4 1023.4 0.0
21/01:30pm 23.4 17.1 9.8 42 7.4 ESE 33 43 18 23 1023.7 1023.7 0.0
21/01:00pm 23.4 16.8 7.9 37 8.1 ESE 32 41 17 22 1024.0 1024.0 0.0
21/12:30pm 24.3 18.3 8.7 37 8.4 SE 30 39 16 21 1024.1 1024.1 0.0
21/12:00pm 24.0 17.8 9.2 39 8.0 SE 32 44 17 24 1024.3 1024.3 0.0
21/11:30am 23.6 17.1 8.1 37 8.2 ESE 32 43 17 23 1024.6 1024.6 0.0
21/11:00am 22.9 17.2 8.2 39 7.7 SE 28 41 15 22 1025.0 1025.0 0.0
21/10:30am 22.9 17.1 7.8 38 7.9 SE 28 41 15 22 1025.1 1025.1 0.0
21/10:00am 21.3 16.9 8.9 45 6.5 SSE 22 32 12 17 1025.4 1025.4 0.0
21/09:30am 22.3 16.2 8.1 40 7.5 SE 30 39 16 21 1025.5 1025.5 0.0
21/09:00am 21.5 15.6 7.7 41 7.1 SSE 28 41 15 22 1025.5 1025.5 0.6
21/08:30am 22.2 15.6 7.6 39 7.6 SE 32 43 17 23 1025.3 1025.3 0.6
21/08:00am 22.0 16.7 8.5 42 7.1 SSE 26 43 14 23 1025.1 1025.1 0.6
21/07:59am 22.2 16.7 9.0 43 7.0 SE 28 43 15 23 1025.1 1025.1 0.6
21/07:30am 21.4 19.0 11.4 53 5.5 S 15 22 8 12 1024.9 1024.9 0.6
21/07:00am 20.3 18.5 12.0 59 4.6 SSW 13 19 7 10 1024.7 1024.7 0.6
21/06:30am 19.1 17.8 12.6 66 3.6 SSW 11 15 6 8 1024.5 1024.5 0.6
21/06:00am 17.7 16.7 12.2 70 3.0 S 9 13 5 7 1024.1 1024.1 0.6
21/05:30am 16.9 15.2 11.2 69 3.1 SSW 11 15 6 8 1023.7 1023.7 0.6
21/05:00am 17.0 15.3 11.3 69 3.1 SSW 11 17 6 9 1023.2 1023.2 0.6
21/04:30am 17.3 15.6 11.3 68 3.2 SSW 11 17 6 9 1022.9 1022.9 0.6
21/04:00am 17.4 15.9 11.9 70 3.0 SSW 11 13 6 7 1022.8 1022.8 0.6
21/03:30am 17.8 16.4 12.3 70 3.0 SSW 11 17 6 9 1022.6 1022.6 0.6
21/03:00am 17.6 15.9 12.5 72 2.8 SSW 13 19 7 10 1022.5 1022.5 0.6
21/02:30am 17.3 15.7 12.8 75 2.5 SSW 13 17 7 9 1022.4 1022.4 0.6
21/02:00am 17.3 16.4 13.6 79 2.1 SSW 11 19 6 10 1022.6 1022.6 0.6
21/01:30am 17.1 16.0 14.2 83 1.7 SSW 13 17 7 9 1022.7 1022.7 0.6
21/01:00am 18.0 16.8 13.9 77 2.3 SSW 13 19 7 10 1023.0 1023.0 0.2
21/12:30am 17.8 17.0 14.1 79 2.1 SSW 11 17 6 9 1023.1 1023.1 0.2
21/12:00am 19.4 16.9 13.6 69 3.3 SSE 19 30 10 16 1023.3 1023.3 0.0
 
Date/Time
EST
Temp
°C
App
Temp
°C
Dew
Point
°C
Rel
Hum
%
Delta-T
°C
Wind Press
QNH
hPa
Press
MSL
hPa
Rain since
9am
mm
Dir  Spd
km/h
Gust
km/h
Spd
kts
Gust
kts
20/11:30pm 19.9 17.6 12.9 64 4.0 SSE 17 24 9 13 1023.3 1023.3 0.0
20/11:00pm 20.1 17.4 12.8 63 4.1 SE 19 26 10 14 1023.2 1023.2 0.0
20/10:30pm 20.1 17.4 13.6 66 3.7 SSE 20 28 11 15 1023.1 1023.1 0.0
20/10:00pm 19.6 17.0 13.8 69 3.3 SSE 20 26 11 14 1022.8 1022.8 0.0
20/09:30pm 20.5 16.9 13.0 62 4.3 SE 24 32 13 17 1022.7 1022.7 0.0
20/09:00pm 20.6 17.9 13.6 64 4.0 SSE 20 28 11 15 1022.4 1022.4 0.0
20/08:30pm 20.6 17.6 13.8 65 3.9 SSE 22 39 12 21 1022.2 1022.2 0.0
20/08:00pm 20.5 17.6 13.9 66 3.8 SSE 22 32 12 17 1021.9 1021.9 0.0
20/07:30pm 20.6 18.4 14.3 67 3.7 SSE 19 26 10 14 1021.5 1021.5 0.0
20/07:00pm 20.1 18.0 14.7 71 3.1 SSE 19 30 10 16 1020.9 1020.9 0.0
20/06:30pm 19.8 17.7 15.2 75 2.7 SSE 20 28 11 15 1020.3 1020.3 0.0
20/06:00pm 20.7 17.4 13.9 65 3.9 SSE 24 39 13 21 1019.9 1019.9 0.0
20/05:30pm 21.2 17.3 14.4 65 4.0 SSE 28 41 15 22 1019.3 1019.3 0.0
20/05:00pm 21.6 17.3 14.3 63 4.3 SSE 30 46 16 25 1019.0 1019.0 0.0
20/04:37pm 21.8 17.2 14.7 64 4.2 SSE 32 50 17 27 1018.5 1018.5 0.0
20/04:30pm 21.9 16.7 14.5 63 4.3 SSE 35 46 19 25 1018.3 1018.3 0.0
20/04:00pm 22.4 17.3 13.7 58 5.0 SSE 33 46 18 25 1018.0 1018.0 0.0
20/03:31pm 22.7 17.2 13.7 56 5.2 SSE 35 54 19 29 1017.8 1017.8 0.0
20/03:30pm 22.7 16.8 13.7 56 5.2 SSE 37 54 20 29 1017.9 1017.9 0.0
20/03:25pm 22.9 17.4 13.7 56 5.4 SSE 35 54 19 29 1017.8 1017.8 0.0
20/03:00pm 22.8 16.1 13.3 55 5.5 SSE 41 57 22 31 1017.7 1017.7 0.0
20/02:37pm 23.2 16.4 13.1 53 5.8 SSE 41 59 22 32 1017.7 1017.7 0.0
20/02:30pm 23.2 16.7 12.8 52 6.0 SSE 39 56 21 30 1017.7 1017.7 0.0
20/02:20pm 24.1 19.2 13.6 52 6.1 SSE 32 50 17 27 1017.7 1017.7 0.0
20/02:00pm 23.6 17.0 12.6 50 6.3 SE 39 56 21 30 1017.6 1017.6 0.0
20/01:32pm 24.6 18.9 12.9 48 6.8 SSE 35 54 19 29 1017.7 1017.7 0.0
20/01:30pm 24.6 18.4 12.5 46 6.9 SSE 37 54 20 29 1017.7 1017.7 0.0
20/01:10pm 24.1 17.8 12.4 48 6.7 SSE 37 56 20 30 1017.9 1017.9 0.0
20/01:00pm 24.0 18.3 12.9 50 6.4 SSE 35 52 19 28 1017.9 1017.9 0.0
20/12:32pm 24.1 18.3 12.7 49 6.6 SSE 35 54 19 29 1017.8 1017.8 0.0
20/12:30pm 25.0 19.5 13.5 48 6.7 SSE 35 46 19 25 1017.8 1017.8 0.0
20/12:00pm 24.3 17.8 12.9 49 6.6 SSE 39 54 21 29 1017.8 1017.8 0.0
20/11:30am 24.3 17.7 13.8 52 6.2 SSE 41 54 22 29 1017.8 1017.8 0.0
20/11:00am 24.8 19.3 14.6 53 6.1 SSE 37 57 20 31 1017.9 1017.9 0.0
20/10:51am 24.1 18.3 13.9 53 6.0 SSE 37 57 20 31 1018.0 1018.0 0.0
20/10:30am 25.0 20.1 15.3 55 5.8 SSE 35 46 19 25 1018.2 1018.2 0.0
20/10:00am 24.3 19.0 14.1 53 6.0 S 35 50 19 27 1018.2 1018.2 0.0
20/09:31am 23.6 18.0 13.2 52 6.0 S 35 54 19 29 1018.2 1018.2 0.0
20/09:30am 23.8 18.7 13.6 52 5.9 S 33 48 18 26 1018.2 1018.2 0.0
20/09:02am 23.3 18.3 13.5 54 5.7 S 32 50 17 27 1018.1 1018.1 0.0
20/09:00am 23.1 17.8 13.0 53 5.8 S 33 50 18 27 1018.2 1018.2 0.0
20/08:30am 22.4 17.2 12.9 55 5.4 SSW 32 44 17 24 1017.9 1017.9 0.0
20/08:00am 21.9 16.6 12.5 55 5.3 S 32 50 17 27 1017.7 1017.7 0.0
20/07:52am 21.7 16.8 12.5 56 5.2 S 30 50 16 27 1017.7 1017.7 0.0

Other formats

Comma delimited format used in spreadsheet applications
http://www.bom.gov.au/fwo/IDQ60801/IDQ60801.94592.axf

JavaScript Object Notation format (JSON) in row-major order
http://www.bom.gov.au/fwo/IDQ60801/IDQ60801.94592.json

Data quality

Most of these data are generated automatically and are frequently updated. Quality checks on data are not normally performed. It is possible for incorrect values to appear. Refer to information at About Latest Weather Observations and please check the disclaimer before using these data.